createdAt,value
2023-02-16T00:00:06.216Z,-2.21
2023-02-16T00:03:14.534Z,-2.14
2023-02-16T00:06:17.583Z,-2.10
2023-02-16T00:09:21.978Z,-2.19
2023-02-16T00:12:43.535Z,-2.16
2023-02-16T00:15:47.404Z,-1.48
2023-02-16T00:18:51.583Z,-1.54
2023-02-16T00:21:57.535Z,-1.61
2023-02-16T00:25:00.200Z,-1.96
2023-02-16T00:28:05.811Z,-2.17
2023-02-16T00:31:16.944Z,-2.23
2023-02-16T00:34:37.950Z,-2.27
2023-02-16T00:37:40.714Z,-2.35
2023-02-16T00:40:43.934Z,-2.40
2023-02-16T00:43:46.594Z,-2.37
2023-02-16T00:46:49.593Z,-2.44
2023-02-16T00:49:54.434Z,-2.44
2023-02-16T00:53:02.575Z,-2.47
2023-02-16T00:56:05.799Z,-2.55
2023-02-16T00:59:16.514Z,-2.43
2023-02-16T01:02:19.187Z,-2.50
2023-02-16T01:05:22.365Z,-2.45
2023-02-16T01:08:45.479Z,-2.48
2023-02-16T01:11:48.519Z,-2.49
2023-02-16T01:14:54.240Z,-2.54
2023-02-16T01:17:58.625Z,-2.61
2023-02-16T01:21:01.535Z,-2.66
2023-02-16T01:24:06.385Z,-2.66
2023-02-16T01:27:12.291Z,-2.66
2023-02-16T01:30:22.345Z,-2.71
2023-02-16T01:33:25.067Z,-2.61
2023-02-16T01:36:40.244Z,-2.70
2023-02-16T01:39:43.111Z,-2.82
2023-02-16T01:42:53.988Z,-2.69
2023-02-16T01:46:12.253Z,-2.75
2023-02-16T01:49:18.080Z,-2.78
2023-02-16T01:52:35.788Z,-2.75
2023-02-16T01:55:43.921Z,-2.80
2023-02-16T01:58:50.552Z,-2.24
2023-02-16T02:02:00.681Z,-2.22
2023-02-16T02:05:35.858Z,-2.29
2023-02-16T02:08:51.258Z,-2.60
2023-02-16T02:12:22.372Z,-2.14
2023-02-16T02:15:29.854Z,-2.34
2023-02-16T02:18:32.587Z,-2.01
2023-02-16T02:22:28.551Z,-2.56
2023-02-16T02:25:52.357Z,-2.75
2023-02-16T02:29:03.388Z,-2.79
2023-02-16T02:32:21.891Z,-2.95
2023-02-16T02:35:46.471Z,-2.99
2023-02-16T02:39:21.996Z,-3.00
2023-02-16T02:42:38.123Z,-2.69
2023-02-16T02:45:45.604Z,-2.91
2023-02-16T02:48:48.730Z,-3.00
2023-02-16T02:51:51.915Z,-2.92
2023-02-16T02:55:13.539Z,-3.00
2023-02-16T02:58:38.056Z,-3.07
2023-02-16T03:01:47.455Z,-2.56
2023-02-16T03:04:52.630Z,-2.05
2023-02-16T03:08:06.402Z,-2.59
2023-02-16T03:11:35.505Z,-2.78
2023-02-16T03:15:00.500Z,-2.89
2023-02-16T03:18:23.940Z,-2.41
2023-02-16T03:21:46.966Z,-2.62
2023-02-16T03:25:08.099Z,-2.78
2023-02-16T03:28:31.707Z,-2.93
2023-02-16T03:31:38.687Z,-2.37
2023-02-16T03:34:41.816Z,-2.65
2023-02-16T03:37:45.162Z,-2.89
2023-02-16T03:40:50.097Z,-3.01
2023-02-16T03:43:52.951Z,-3.13
2023-02-16T03:46:56.120Z,-3.23
2023-02-16T03:49:58.797Z,-3.30
2023-02-16T03:53:08.185Z,-3.27
2023-02-16T03:56:10.796Z,-3.18
2023-02-16T03:59:13.709Z,-3.23
2023-02-16T04:02:16.627Z,-3.21
2023-02-16T04:05:19.821Z,-3.14
2023-02-16T04:08:22.607Z,-3.29
2023-02-16T04:11:44.300Z,-3.32
2023-02-16T04:14:47.126Z,-2.71
2023-02-16T04:17:50.190Z,-2.38
2023-02-16T04:20:54.082Z,-2.84
2023-02-16T04:23:57.031Z,-3.14
2023-02-16T04:26:59.688Z,-3.31
2023-02-16T04:30:04.086Z,-3.41
2023-02-16T04:33:08.687Z,-3.36
2023-02-16T04:36:11.632Z,-3.48
2023-02-16T04:39:14.433Z,-3.54
2023-02-16T04:42:17.442Z,-3.23
2023-02-16T04:45:20.047Z,-3.44
2023-02-16T04:48:22.970Z,-3.26
2023-02-16T04:51:25.875Z,-3.09
2023-02-16T04:54:28.896Z,-3.02
2023-02-16T04:57:31.998Z,-3.34
2023-02-16T05:00:36.634Z,-3.39
2023-02-16T05:03:39.345Z,-3.54
2023-02-16T05:06:42.932Z,-3.54
2023-02-16T05:09:45.604Z,-3.04
2023-02-16T05:13:07.591Z,-3.31
2023-02-16T05:16:11.706Z,-3.57
2023-02-16T05:19:14.759Z,-3.61
2023-02-16T05:22:18.709Z,-3.57
2023-02-16T05:25:21.607Z,-3.55
2023-02-16T05:28:24.626Z,-3.49
2023-02-16T05:31:29.394Z,-2.99
2023-02-16T05:34:32.193Z,-3.34
2023-02-16T05:37:35.154Z,-3.54
2023-02-16T05:40:37.789Z,-3.70
2023-02-16T05:43:40.714Z,-3.73
2023-02-16T05:46:44.058Z,-3.68
2023-02-16T05:49:47.020Z,-3.73
2023-02-16T05:52:49.641Z,-3.73
2023-02-16T05:55:53.310Z,-3.76
2023-02-16T05:58:56.477Z,-3.56
2023-02-16T06:01:59.482Z,-3.20
2023-02-16T06:05:02.430Z,-2.74
2023-02-16T06:08:05.437Z,-2.66
2023-02-16T06:11:28.773Z,-2.85
2023-02-16T06:14:31.382Z,-2.81
2023-02-16T06:17:34.752Z,-2.31
2023-02-16T06:20:38.734Z,-2.83
2023-02-16T06:23:41.649Z,-3.10
2023-02-16T06:26:44.317Z,-2.91
2023-02-16T06:29:47.714Z,-2.24
2023-02-16T06:32:50.419Z,-1.67
2023-02-16T06:35:53.356Z,-1.80
2023-02-16T06:38:55.963Z,-2.28
2023-02-16T06:41:58.910Z,-2.27
2023-02-16T06:45:01.769Z,-2.09
2023-02-16T06:48:05.682Z,-1.51
2023-02-16T06:51:08.372Z,-1.78
2023-02-16T06:54:12.925Z,-1.72
2023-02-16T06:57:15.537Z,-0.97
2023-02-16T07:00:18.790Z,-1.00
2023-02-16T07:03:21.572Z,-0.41
2023-02-16T07:06:28.238Z,-0.54
2023-02-16T07:09:31.002Z,-0.40
2023-02-16T07:12:34.063Z,-0.47
2023-02-16T07:15:36.884Z,-0.07
2023-02-16T07:18:40.239Z,-0.20
2023-02-16T07:21:43.708Z,-0.25
2023-02-16T07:24:46.763Z,0.22
2023-02-16T07:27:49.519Z,0.54
2023-02-16T07:30:52.842Z,0.49
2023-02-16T07:33:55.713Z,1.00
2023-02-16T07:36:58.727Z,1.36
2023-02-16T07:40:02.869Z,1.63
2023-02-16T07:43:08.459Z,1.78
2023-02-16T07:46:11.402Z,1.91
2023-02-16T07:49:15.137Z,2.00
2023-02-16T07:52:18.194Z,2.44
2023-02-16T07:55:22.702Z,2.29
2023-02-16T07:58:28.099Z,2.43
2023-02-16T08:01:31.762Z,2.28
2023-02-16T08:04:36.523Z,2.40
2023-02-16T08:07:41.014Z,2.62
2023-02-16T08:10:44.037Z,2.93
2023-02-16T08:13:47.361Z,2.98
2023-02-16T08:16:53.559Z,3.59
2023-02-16T08:19:59.876Z,3.75
2023-02-16T08:23:03.000Z,4.06
2023-02-16T08:26:10.669Z,4.26
2023-02-16T08:29:14.948Z,4.42
2023-02-16T08:32:18.268Z,4.54
2023-02-16T08:35:21.294Z,4.78
2023-02-16T08:38:23.925Z,4.75
2023-02-16T08:41:32.162Z,5.00
2023-02-16T08:44:34.903Z,5.32
2023-02-16T08:47:37.824Z,5.82
2023-02-16T08:50:53.564Z,5.84
2023-02-16T08:54:01.061Z,6.05
2023-02-16T08:57:03.749Z,6.32
2023-02-16T09:00:25.931Z,6.39
2023-02-16T09:03:29.607Z,6.71
2023-02-16T09:06:37.638Z,6.79
2023-02-16T09:09:41.840Z,6.95
2023-02-16T09:12:49.844Z,6.84
2023-02-16T09:15:53.303Z,7.08
2023-02-16T09:18:57.461Z,7.06
2023-02-16T09:22:00.113Z,7.17
2023-02-16T09:25:03.209Z,7.06
2023-02-16T09:28:06.862Z,7.37
2023-02-16T09:31:17.084Z,7.33
2023-02-16T09:34:22.712Z,7.51
2023-02-16T09:37:25.874Z,7.68
2023-02-16T09:40:28.745Z,7.81
2023-02-16T09:43:34.900Z,7.79
2023-02-16T09:46:38.152Z,7.78
2023-02-16T09:49:46.830Z,7.76
2023-02-16T09:52:55.466Z,8.29
2023-02-16T09:56:27.396Z,8.15
2023-02-16T09:59:35.451Z,8.75
2023-02-16T10:02:42.970Z,8.93
2023-02-16T10:05:50.926Z,8.94
2023-02-16T10:09:02.271Z,8.92
2023-02-16T10:12:11.527Z,9.02
2023-02-16T10:15:22.497Z,8.96
2023-02-16T10:18:31.319Z,8.72
2023-02-16T10:21:34.157Z,9.17
2023-02-16T10:24:51.542Z,9.05
2023-02-16T10:28:12.614Z,9.01
2023-02-16T10:31:22.507Z,8.71
2023-02-16T10:34:34.218Z,8.94
2023-02-16T10:38:14.505Z,8.90
2023-02-16T10:41:28.050Z,9.05
2023-02-16T10:44:37.466Z,9.16
2023-02-16T10:47:43.763Z,9.11
2023-02-16T10:50:56.755Z,9.29
2023-02-16T10:54:03.442Z,9.06
2023-02-16T10:57:13.210Z,9.20
2023-02-16T11:00:23.132Z,9.32
2023-02-16T11:03:33.513Z,9.26
2023-02-16T11:06:36.708Z,9.38
2023-02-16T11:09:41.639Z,9.26
2023-02-16T11:12:44.365Z,9.14
2023-02-16T11:15:54.700Z,9.44
2023-02-16T11:19:18.424Z,9.52
2023-02-16T11:22:37.181Z,9.47
2023-02-16T11:25:40.531Z,9.54
2023-02-16T11:28:49.041Z,9.48
2023-02-16T11:31:52.107Z,9.69
2023-02-16T11:34:55.243Z,10.23
2023-02-16T11:37:58.126Z,10.50
2023-02-16T11:41:05.050Z,10.29
2023-02-16T11:44:32.867Z,10.42
2023-02-16T11:47:40.002Z,10.32
2023-02-16T11:51:03.636Z,10.28
2023-02-16T11:54:08.071Z,10.20
2023-02-16T11:57:15.662Z,10.27
2023-02-16T12:00:22.261Z,10.37
2023-02-16T12:03:32.736Z,10.53
2023-02-16T12:07:16.612Z,10.35
2023-02-16T12:10:28.549Z,10.16
2023-02-16T12:13:38.685Z,10.37
2023-02-16T12:16:52.372Z,10.01
2023-02-16T12:20:32.071Z,10.39
2023-02-16T12:23:54.086Z,10.26
2023-02-16T12:27:00.712Z,9.87
2023-02-16T12:30:16.698Z,9.99
2023-02-16T12:33:35.846Z,9.94
2023-02-16T12:36:54.417Z,10.13
2023-02-16T12:40:34.813Z,9.90
2023-02-16T12:43:42.686Z,9.83
2023-02-16T12:46:56.973Z,9.97
2023-02-16T12:50:08.225Z,9.99
2023-02-16T12:53:46.965Z,9.91
2023-02-16T12:57:01.890Z,9.83
2023-02-16T13:00:15.410Z,10.16
2023-02-16T13:03:27.335Z,10.04
2023-02-16T13:06:42.165Z,10.06
2023-02-16T13:10:07.153Z,10.48
2023-02-16T13:13:17.706Z,10.24
2023-02-16T13:16:30.079Z,10.23
2023-02-16T13:19:33.855Z,10.40
2023-02-16T13:22:46.085Z,10.08
2023-02-16T13:25:51.787Z,9.89
2023-02-16T13:29:03.942Z,10.47
2023-02-16T13:32:33.927Z,10.60
2023-02-16T13:36:13.316Z,10.38
2023-02-16T13:39:50.342Z,10.23
2023-02-16T13:43:15.194Z,10.75
2023-02-16T13:46:34.328Z,10.72
2023-02-16T13:49:43.103Z,10.77
2023-02-16T13:52:46.579Z,10.45
2023-02-16T13:56:20.512Z,10.40
2023-02-16T13:59:23.006Z,10.40
2023-02-16T14:02:57.129Z,10.11
2023-02-16T14:06:32.971Z,10.21
2023-02-16T14:09:38.504Z,10.28
2023-02-16T14:12:41.966Z,10.58
2023-02-16T14:15:52.594Z,10.24
2023-02-16T14:18:59.695Z,10.19
2023-02-16T14:22:11.776Z,10.36
2023-02-16T14:25:23.406Z,10.22
2023-02-16T14:28:32.000Z,10.15
2023-02-16T14:31:44.966Z,10.18
2023-02-16T14:34:57.546Z,10.20
2023-02-16T14:38:33.022Z,9.86
2023-02-16T14:41:37.001Z,9.89
2023-02-16T14:45:08.481Z,10.14
2023-02-16T14:48:17.943Z,10.24
2023-02-16T14:51:56.987Z,9.89
2023-02-16T14:55:39.437Z,9.62
2023-02-16T14:58:51.988Z,9.93
2023-02-16T15:01:54.759Z,9.75
2023-02-16T15:04:58.388Z,9.41
2023-02-16T15:08:18.032Z,9.40
2023-02-16T15:11:27.277Z,9.47
2023-02-16T15:14:34.605Z,9.49
2023-02-16T15:17:48.393Z,9.32
2023-02-16T15:20:54.222Z,9.04
2023-02-16T15:23:59.358Z,8.90
2023-02-16T15:27:02.881Z,8.92
2023-02-16T15:30:19.452Z,8.83
2023-02-16T15:33:27.306Z,8.72
2023-02-16T15:36:33.383Z,8.58
2023-02-16T15:39:46.386Z,8.42
2023-02-16T15:43:07.829Z,8.28
2023-02-16T15:46:28.185Z,8.13
2023-02-16T15:49:32.866Z,8.00
2023-02-16T15:52:37.911Z,7.76
2023-02-16T15:55:47.314Z,7.65
2023-02-16T15:58:51.011Z,7.33
2023-02-16T16:02:04.393Z,7.34
2023-02-16T16:05:20.889Z,7.32
2023-02-16T16:08:27.504Z,7.35
2023-02-16T16:11:30.569Z,6.92
2023-02-16T16:14:36.553Z,6.94
2023-02-16T16:17:39.874Z,6.64
2023-02-16T16:20:44.183Z,6.62
2023-02-16T16:24:08.870Z,6.57
2023-02-16T16:27:13.252Z,6.44
2023-02-16T16:30:28.482Z,6.15
2023-02-16T16:33:58.807Z,5.98
2023-02-16T16:37:03.980Z,5.70
2023-02-16T16:40:18.940Z,5.65
2023-02-16T16:43:28.203Z,5.72
2023-02-16T16:46:31.466Z,5.50
2023-02-16T16:49:34.846Z,5.22
2023-02-16T16:52:44.426Z,5.14
2023-02-16T16:55:47.560Z,5.22
2023-02-16T16:58:51.715Z,4.95
2023-02-16T17:01:55.543Z,4.77
2023-02-16T17:04:58.633Z,4.60
2023-02-16T17:08:01.874Z,4.50
2023-02-16T17:11:05.260Z,4.40
2023-02-16T17:14:11.040Z,4.27
2023-02-16T17:17:13.898Z,4.20
2023-02-16T17:20:17.465Z,4.14
2023-02-16T17:23:22.427Z,3.97
2023-02-16T17:26:25.450Z,3.88
2023-02-16T17:29:28.650Z,3.72
2023-02-16T17:32:31.981Z,3.74
2023-02-16T17:35:37.377Z,3.71
2023-02-16T17:38:41.725Z,3.63
2023-02-16T17:41:44.782Z,3.64
2023-02-16T17:44:47.654Z,3.47
2023-02-16T17:47:53.047Z,3.59
2023-02-16T17:50:58.115Z,3.63
2023-02-16T17:54:01.347Z,3.57
2023-02-16T17:57:04.817Z,3.49
2023-02-16T18:00:15.859Z,3.28
2023-02-16T18:03:19.223Z,3.04
2023-02-16T18:06:26.396Z,3.30
2023-02-16T18:09:31.318Z,3.04
2023-02-16T18:12:34.394Z,3.11
2023-02-16T18:15:39.080Z,2.85
2023-02-16T18:18:42.119Z,2.72
2023-02-16T18:21:45.555Z,2.61
2023-02-16T18:24:48.522Z,2.52
2023-02-16T18:27:52.097Z,2.17
2023-02-16T18:30:55.033Z,1.93
2023-02-16T18:33:58.255Z,1.90
2023-02-16T18:37:01.289Z,2.00
2023-02-16T18:40:06.647Z,2.11
2023-02-16T18:43:11.450Z,1.94
2023-02-16T18:46:14.715Z,2.21
2023-02-16T18:49:18.726Z,2.21
2023-02-16T18:52:22.406Z,2.24
2023-02-16T18:55:28.021Z,1.93
2023-02-16T18:58:31.280Z,1.90
2023-02-16T19:01:35.104Z,1.91
2023-02-16T19:04:38.669Z,1.98
2023-02-16T19:07:41.711Z,1.76
2023-02-16T19:10:45.425Z,1.68
2023-02-16T19:13:48.949Z,1.58
2023-02-16T19:16:52.835Z,1.25
2023-02-16T19:19:56.046Z,0.98
2023-02-16T19:22:59.593Z,0.90
2023-02-16T19:26:08.743Z,1.06
2023-02-16T19:29:12.985Z,0.85
2023-02-16T19:32:15.929Z,0.77
2023-02-16T19:35:19.415Z,0.65
2023-02-16T19:38:22.382Z,0.77
2023-02-16T19:41:32.265Z,0.69
2023-02-16T19:44:36.822Z,0.64
2023-02-16T19:47:40.078Z,1.04
2023-02-16T19:50:43.206Z,0.94
2023-02-16T19:53:46.518Z,0.98
2023-02-16T19:56:49.603Z,0.91
2023-02-16T19:59:52.801Z,0.83
2023-02-16T20:02:55.878Z,0.79
2023-02-16T20:05:58.973Z,0.86
2023-02-16T20:09:02.053Z,0.85
2023-02-16T20:12:06.077Z,1.05
2023-02-16T20:15:09.257Z,1.05
2023-02-16T20:18:12.653Z,0.99
2023-02-16T20:21:18.745Z,1.01
2023-02-16T20:24:22.358Z,0.86
2023-02-16T20:27:25.213Z,0.54
2023-02-16T20:30:28.949Z,0.54
2023-02-16T20:33:31.960Z,0.76
2023-02-16T20:36:37.319Z,0.67
2023-02-16T20:39:40.338Z,0.95
2023-02-16T20:42:43.566Z,0.80
2023-02-16T20:45:48.080Z,0.72
2023-02-16T20:48:51.616Z,0.40
2023-02-16T20:51:54.575Z,0.62
2023-02-16T20:54:58.701Z,0.52
2023-02-16T20:58:01.914Z,0.11
2023-02-16T21:01:38.822Z,-0.03
2023-02-16T21:04:41.725Z,0.00
2023-02-16T21:07:45.930Z,0.18
2023-02-16T21:10:48.740Z,0.23
2023-02-16T21:13:52.448Z,0.08
2023-02-16T21:16:57.224Z,0.09
2023-02-16T21:20:00.287Z,-0.03
2023-02-16T21:23:04.686Z,0.07
2023-02-16T21:26:08.852Z,0.20
2023-02-16T21:29:11.537Z,0.07
2023-02-16T21:32:15.154Z,0.33
2023-02-16T21:35:18.335Z,0.29
2023-02-16T21:38:21.412Z,0.04
2023-02-16T21:41:30.396Z,0.09
2023-02-16T21:44:33.370Z,-0.01
2023-02-16T21:47:55.099Z,0.01
2023-02-16T21:51:03.336Z,0.06
2023-02-16T21:54:08.257Z,0.10
2023-02-16T21:57:11.146Z,0.12
2023-02-16T22:00:15.565Z,-0.07
2023-02-16T22:03:20.466Z,-0.16
2023-02-16T22:06:24.933Z,-0.27
2023-02-16T22:09:27.885Z,-0.20
2023-02-16T22:12:31.467Z,-0.20
2023-02-16T22:15:38.523Z,-0.16
2023-02-16T22:18:41.377Z,0.04
2023-02-16T22:21:46.058Z,-0.15
2023-02-16T22:24:48.694Z,-0.16
2023-02-16T22:27:51.739Z,-0.15
2023-02-16T22:30:54.484Z,-0.28
2023-02-16T22:34:02.282Z,-0.39
2023-02-16T22:37:04.883Z,-0.10
2023-02-16T22:40:08.058Z,-0.11
2023-02-16T22:43:10.883Z,-0.16
2023-02-16T22:46:16.939Z,-0.13
2023-02-16T22:49:19.647Z,-0.25
2023-02-16T22:52:23.067Z,-0.06
2023-02-16T22:55:25.654Z,0.09
2023-02-16T22:58:29.480Z,0.14
2023-02-16T23:01:33.027Z,0.40
2023-02-16T23:04:36.125Z,0.24
2023-02-16T23:07:38.816Z,0.42
2023-02-16T23:10:59.659Z,0.18
2023-02-16T23:14:02.703Z,0.26
2023-02-16T23:17:05.599Z,0.14
2023-02-16T23:20:09.549Z,0.09
2023-02-16T23:23:13.445Z,0.32
2023-02-16T23:26:17.206Z,0.13
2023-02-16T23:29:20.288Z,-0.05
2023-02-16T23:32:22.902Z,-0.11
2023-02-16T23:35:25.974Z,0.00
2023-02-16T23:38:28.788Z,-0.15
2023-02-16T23:41:32.233Z,-0.06
2023-02-16T23:44:34.867Z,-0.43
2023-02-16T23:47:37.872Z,-0.34
2023-02-16T23:50:40.853Z,-0.36
2023-02-16T23:53:44.382Z,-0.50
2023-02-16T23:56:47.070Z,-0.41
2023-02-16T23:59:50.061Z,-0.56
